ESGG Airport Information

Runway Information
Runway 03 Length 10823 ft width 148 ft
Elevation 478 ft Threshold 0 ft Heading 26
Runway 21 Length 10823 ft Width 148 ft
Elevation 506 ft Threshold 0 ft Heading 206
Airport Frequencies
Type ATIS Name ATIS Frequency 118.375 MHZ
Type GCCD Name GND Frequency 121.9 MHZ
Type TCA Name GOTEBORG A Frequency 124.675 MHZ
Type TWR Name TWR Frequency 118.6 MHZ
Airport Navaids
Type VOR-DME Name Landvetter Frequency 114600 KHZ
Airport Weather Information & NOTAM
ADDS - METARS form results

(1624 UTC 07 May 2021)
Data provider http://aviationweather.gov/metar/data/
 
METAR text: ESGG 071620Z 26004KT 9999 SCT062 08/M00 Q1007
Conditions at: ESGG (GOTEBORG/LANDVET, SE) observed 1620 UTC 07 May 2021
Temperature: 8.0°C (46°F)
Dewpoint: 0.0°C (32°F) [RH = 57%]
Pressure (altimeter): 29.73 inches Hg (1007.0 mb)
Winds: from the W (260 degrees) at 5 MPH (4 knots; 2.1 m/s)
Visibility: 6 or more miles (10+ km)
Ceiling: at least 12,000 feet AGL
Clouds: scattered clouds at 6200 feet AGL
Weather: no significant weather observed at this time

METAR text: ESGG 071550Z 30005KT 250V340 9999 FEW038CB 06/M00 Q1007
Conditions at: ESGG (GOTEBORG/LANDVET, SE) observed 1550 UTC 07 May 2021
Temperature: 6.0°C (43°F)
Dewpoint: 0.0°C (32°F) [RH = 65%]
Pressure (altimeter): 29.73 inches Hg (1007.0 mb)
Winds: from the WNW (300 degrees) at 6 MPH (5 knots; 2.6 m/s)
Visibility: 6 or more miles (10+ km)
Ceiling: at least 12,000 feet AGL
Clouds: few clouds at 3800 feet AGL
Weather: no significant weather observed at this time

Forecast for: ESGG (GOTEBORG/LANDVET, SE)
Text: TAF ESGG 071130Z 0712/0812 23005KT 9999 SCT025 BKN040
Forecast period: 1200 UTC 07 May 2021 to 1200 UTC 08 May 2021
Forecast type: FROM: standard forecast or significant change
Winds: from the SW (230 degrees) at 6 MPH (5 knots; 2.6 m/s)
Visibility: 6 or more miles (10+ km)
Ceiling: 4000 feet AGL
Clouds: scattered clouds at 2500 feet AGL
broken clouds at 4000 feet AGL
Weather: no significant weather forecast for this period
Text: TEMPO 0712/0716 SHRA BKN025CB
Forecast period: 1200 to 1600 UTC 07 May 2021
Forecast type: TEMPORARY: The following changes expected for less than half the time period
Visibility: missing
Ceiling: 2500 feet AGL
Clouds: broken clouds at 2500 feet AGL
Weather: SHRA  (rain showers)
Text: PROB40 0721/0806 0300 FG VV002
Forecast period: 2100 UTC 07 May 2021 to 0600 UTC 08 May 2021
Forecast type: PROBABLE: 40 percent likelihood of the following during this time
Visibility: 0.19 miles (0.31 km)
Ceiling: indefinite ceiling with vertical visibility of 200 feet AGL
Clouds: obscured sky
Weather: FG  (fog)
Text: TEMPO 0810/0812 BKN040TCU
Forecast period: 1000 to 1200 UTC 08 May 2021
Forecast type: TEMPORARY: The following changes expected for less than half the time period
Visibility: missing
Ceiling: 4000 feet AGL
Clouds: broken clouds at 4000 feet AGL
Weather: no significant weather forecast for this period